createdAt,value
2022-10-05T00:00:06.612Z,10.90
2022-10-05T00:01:06.648Z,11.00
2022-10-05T00:02:06.677Z,11.80
2022-10-05T00:03:06.597Z,13.80
2022-10-05T00:04:06.616Z,10.50
2022-10-05T00:05:06.647Z,11.70
2022-10-05T00:06:06.588Z,11.40
2022-10-05T00:07:06.587Z,12.80
2022-10-05T00:08:06.576Z,9.90
2022-10-05T00:09:06.567Z,13.30
2022-10-05T00:10:06.539Z,13.30
2022-10-05T00:11:06.706Z,11.30
2022-10-05T00:12:06.587Z,10.70
2022-10-05T00:13:06.530Z,10.50
2022-10-05T00:14:06.541Z,11.00
2022-10-05T00:15:07.386Z,12.00
2022-10-05T00:16:06.569Z,11.20
2022-10-05T00:17:06.517Z,11.80
2022-10-05T00:18:06.546Z,9.40
2022-10-05T00:19:06.495Z,13.30
2022-10-05T00:20:06.476Z,13.20
2022-10-05T00:21:06.496Z,10.70
2022-10-05T00:22:06.487Z,11.80
2022-10-05T00:23:06.466Z,12.90
2022-10-05T00:24:06.456Z,13.20
2022-10-05T00:25:06.445Z,10.60
2022-10-05T00:26:06.435Z,12.40
2022-10-05T00:27:06.453Z,10.10
2022-10-05T00:28:06.536Z,10.20
2022-10-05T00:29:06.456Z,11.90
2022-10-05T00:30:06.414Z,12.70
2022-10-05T00:31:06.407Z,13.30
2022-10-05T00:32:06.501Z,10.00
2022-10-05T00:33:06.411Z,13.80
2022-10-05T00:34:06.377Z,10.10
2022-10-05T00:35:06.383Z,11.60
2022-10-05T00:36:06.363Z,11.70
2022-10-05T00:37:06.504Z,14.40
2022-10-05T00:38:06.356Z,13.00
2022-10-05T00:39:06.353Z,12.40
2022-10-05T00:40:06.332Z,11.70
2022-10-05T00:41:06.339Z,14.20
2022-10-05T00:42:06.403Z,11.10
2022-10-05T00:43:06.332Z,13.30
2022-10-05T00:44:06.315Z,11.40
2022-10-05T00:45:06.320Z,11.60
2022-10-05T00:46:06.391Z,12.10
2022-10-05T00:47:06.640Z,12.90
2022-10-05T00:48:06.282Z,12.10
2022-10-05T00:49:06.289Z,15.50
2022-10-05T00:50:06.271Z,12.30
2022-10-05T00:51:06.269Z,14.60
2022-10-05T00:52:06.421Z,12.10
2022-10-05T00:53:06.711Z,12.70
2022-10-05T00:54:06.241Z,11.60
2022-10-05T00:55:06.250Z,13.10
2022-10-05T00:56:06.238Z,11.70
2022-10-05T00:57:06.250Z,11.60
2022-10-05T00:58:06.229Z,11.80
2022-10-05T00:59:06.235Z,11.20
2022-10-05T01:00:06.227Z,11.00
2022-10-05T01:01:06.270Z,11.80
2022-10-05T01:02:06.349Z,10.50
2022-10-05T01:03:06.179Z,12.30
2022-10-05T01:04:06.178Z,12.40
2022-10-05T01:05:06.177Z,11.10
2022-10-05T01:06:06.677Z,10.40
2022-10-05T01:07:06.214Z,10.10
2022-10-05T01:08:06.741Z,11.80
2022-10-05T01:09:06.149Z,12.00
2022-10-05T01:10:06.138Z,10.90
2022-10-05T01:11:06.927Z,13.40
2022-10-05T01:12:06.154Z,12.90
2022-10-05T01:13:06.199Z,13.60
2022-10-05T01:14:06.107Z,11.50
2022-10-05T01:15:07.025Z,11.40
2022-10-05T01:16:07.073Z,12.00
2022-10-05T01:17:07.011Z,11.70
2022-10-05T01:18:06.972Z,11.30
2022-10-05T01:19:07.051Z,12.70
2022-10-05T01:20:07.047Z,11.80
2022-10-05T01:21:06.629Z,12.90
2022-10-05T01:22:06.171Z,16.80
2022-10-05T01:23:06.636Z,11.80
2022-10-05T01:24:06.047Z,12.90
2022-10-05T01:25:06.044Z,14.20
2022-10-05T01:26:06.047Z,12.50
2022-10-05T01:27:06.205Z,12.40
2022-10-05T01:28:06.244Z,12.60
2022-10-05T01:29:06.017Z,11.30
2022-10-05T01:30:06.220Z,10.90
2022-10-05T01:31:06.341Z,12.30
2022-10-05T01:32:06.004Z,14.90
2022-10-05T01:33:06.448Z,11.10
2022-10-05T01:34:11.192Z,11.70
2022-10-05T01:35:05.974Z,12.40
2022-10-05T01:36:06.053Z,14.00
2022-10-05T01:37:06.053Z,12.70
2022-10-05T01:38:06.134Z,13.80
2022-10-05T01:39:05.967Z,10.40
2022-10-05T01:40:05.936Z,12.00
2022-10-05T01:41:06.291Z,11.30
2022-10-05T01:42:06.418Z,12.70
2022-10-05T01:43:05.924Z,13.50
2022-10-05T01:44:06.374Z,12.10
2022-10-05T01:45:05.915Z,12.30
2022-10-05T01:46:05.939Z,11.40
2022-10-05T01:47:05.969Z,11.90
2022-10-05T01:48:06.541Z,11.60
2022-10-05T01:49:06.621Z,11.00
2022-10-05T01:50:05.869Z,15.50
2022-10-05T01:51:06.431Z,11.70
2022-10-05T01:52:06.713Z,11.30
2022-10-05T01:53:06.185Z,12.00
2022-10-05T01:54:06.842Z,13.00
2022-10-05T01:55:06.741Z,12.30
2022-10-05T01:56:06.220Z,12.40
2022-10-05T01:57:06.204Z,11.50
2022-10-05T01:58:06.710Z,11.10
2022-10-05T01:59:06.871Z,10.50
2022-10-05T02:00:05.821Z,10.70
2022-10-05T02:01:05.871Z,13.10
2022-10-05T02:02:06.930Z,15.30
2022-10-05T02:03:06.742Z,12.30
2022-10-05T02:04:06.648Z,12.30
2022-10-05T02:05:05.845Z,11.90
2022-10-05T02:06:05.850Z,15.10
2022-10-05T02:07:06.637Z,12.90
2022-10-05T02:08:05.740Z,12.60
2022-10-05T02:09:07.201Z,14.00
2022-10-05T02:10:05.731Z,12.60
2022-10-05T02:11:05.731Z,11.20
2022-10-05T02:12:05.770Z,12.00
2022-10-05T02:13:05.854Z,11.20
2022-10-05T02:14:05.729Z,12.60
2022-10-05T02:15:05.719Z,13.90
2022-10-05T02:16:05.776Z,12.20
2022-10-05T02:17:05.717Z,14.70
2022-10-05T02:18:05.679Z,11.20
2022-10-05T02:19:05.681Z,14.20
2022-10-05T02:20:05.658Z,13.80
2022-10-05T02:21:05.770Z,13.10
2022-10-05T02:22:05.688Z,13.50
2022-10-05T02:23:05.776Z,13.90
2022-10-05T02:24:05.636Z,11.80
2022-10-05T02:25:06.006Z,15.60
2022-10-05T02:26:05.997Z,11.70
2022-10-05T02:27:05.617Z,13.10
2022-10-05T02:28:05.714Z,13.50
2022-10-05T02:29:05.596Z,12.20
2022-10-05T02:30:06.025Z,11.50
2022-10-05T02:31:05.638Z,11.20
2022-10-05T02:32:05.576Z,12.40
2022-10-05T02:33:05.626Z,13.30
2022-10-05T02:34:05.566Z,13.40
2022-10-05T02:35:05.636Z,12.80
2022-10-05T02:36:05.553Z,12.90
2022-10-05T02:37:05.739Z,13.10
2022-10-05T02:38:05.554Z,12.40
2022-10-05T02:39:05.541Z,12.70
2022-10-05T02:40:05.533Z,14.20
2022-10-05T02:41:05.791Z,13.90
2022-10-05T02:42:05.514Z,10.50
2022-10-05T02:43:05.693Z,11.60
2022-10-05T02:44:05.685Z,13.10
2022-10-05T02:45:06.123Z,14.30
2022-10-05T02:46:06.033Z,12.10
2022-10-05T02:47:05.515Z,11.00
2022-10-05T02:48:06.134Z,11.60
2022-10-05T02:49:05.523Z,12.90
2022-10-05T02:50:05.453Z,10.60
2022-10-05T02:51:05.534Z,10.50
2022-10-05T02:52:05.523Z,10.50
2022-10-05T02:53:05.453Z,12.30
2022-10-05T02:54:05.432Z,10.70
2022-10-05T02:55:05.434Z,11.20
2022-10-05T02:56:05.422Z,11.70
2022-10-05T02:57:05.797Z,11.70
2022-10-05T02:58:05.789Z,11.20
2022-10-05T02:59:05.400Z,12.50
2022-10-05T03:00:05.401Z,12.90
2022-10-05T03:01:05.451Z,11.80
2022-10-05T03:02:05.456Z,11.00
2022-10-05T03:03:05.395Z,10.90
2022-10-05T03:04:05.361Z,10.80
2022-10-05T03:05:05.960Z,9.70
2022-10-05T03:06:06.255Z,12.90
2022-10-05T03:07:05.369Z,10.70
2022-10-05T03:08:05.362Z,13.00
2022-10-05T03:09:05.338Z,11.30
2022-10-05T03:10:05.372Z,9.90
2022-10-05T03:11:05.350Z,12.20
2022-10-05T03:12:05.330Z,13.90
2022-10-05T03:13:05.430Z,11.70
2022-10-05T03:14:05.314Z,9.60
2022-10-05T03:15:05.329Z,10.50
2022-10-05T03:16:05.343Z,11.80
2022-10-05T03:17:05.279Z,11.20
2022-10-05T03:18:05.280Z,12.70
2022-10-05T03:19:05.261Z,13.70
2022-10-05T03:20:05.251Z,14.00
2022-10-05T03:21:05.247Z,12.80
2022-10-05T03:22:05.237Z,11.60
2022-10-05T03:23:05.344Z,11.50
2022-10-05T03:24:05.337Z,12.80
2022-10-05T03:25:05.470Z,10.10
2022-10-05T03:26:05.998Z,11.00
2022-10-05T03:27:05.207Z,11.70
2022-10-05T03:28:05.285Z,12.50
2022-10-05T03:29:05.196Z,11.90
2022-10-05T03:30:05.187Z,11.10
2022-10-05T03:31:05.248Z,11.00
2022-10-05T03:32:05.177Z,10.80
2022-10-05T03:33:05.183Z,12.20
2022-10-05T03:34:05.166Z,11.50
2022-10-05T03:35:05.197Z,9.90
2022-10-05T03:36:05.187Z,11.50
2022-10-05T03:37:05.145Z,12.10
2022-10-05T03:38:05.167Z,10.70
2022-10-05T03:39:05.128Z,12.00
2022-10-05T03:40:05.136Z,10.30
2022-10-05T03:41:05.116Z,11.10
2022-10-05T03:42:05.105Z,10.60
2022-10-05T03:43:05.185Z,9.20
2022-10-05T03:44:05.094Z,11.10
2022-10-05T03:45:05.134Z,11.90
2022-10-05T03:46:05.152Z,12.40
2022-10-05T03:47:05.070Z,9.90
2022-10-05T03:48:05.069Z,11.50
2022-10-05T03:49:05.064Z,11.90
2022-10-05T03:50:05.043Z,11.70
2022-10-05T03:51:05.041Z,9.20
2022-10-05T03:52:05.053Z,10.90
2022-10-05T03:53:05.023Z,10.90
2022-10-05T03:54:05.033Z,12.30
2022-10-05T03:55:05.013Z,10.90
2022-10-05T03:56:05.011Z,10.90
2022-10-05T03:57:05.000Z,10.50
2022-10-05T03:58:04.993Z,13.30
2022-10-05T03:59:05.003Z,10.00
2022-10-05T04:00:04.997Z,11.10
2022-10-05T04:01:05.590Z,11.10
2022-10-05T04:02:04.970Z,12.70
2022-10-05T04:03:04.952Z,12.70
2022-10-05T04:04:04.970Z,12.30
2022-10-05T04:05:04.969Z,12.00
2022-10-05T04:06:04.942Z,11.80
2022-10-05T04:07:04.931Z,9.90
2022-10-05T04:08:04.922Z,12.80
2022-10-05T04:09:04.930Z,10.40
2022-10-05T04:10:04.931Z,12.00
2022-10-05T04:11:04.901Z,11.00
2022-10-05T04:12:04.891Z,13.00
2022-10-05T04:13:04.890Z,11.60
2022-10-05T04:14:04.907Z,12.60
2022-10-05T04:15:04.889Z,10.20
2022-10-05T04:16:04.885Z,10.80
2022-10-05T04:17:05.630Z,13.30
2022-10-05T04:18:04.863Z,10.60
2022-10-05T04:19:04.860Z,10.20
2022-10-05T04:20:04.850Z,12.10
2022-10-05T04:21:04.838Z,11.00
2022-10-05T04:22:04.827Z,12.00
2022-10-05T04:23:04.819Z,11.70
2022-10-05T04:24:04.889Z,13.30
2022-10-05T04:25:04.798Z,12.10
2022-10-05T04:26:04.808Z,12.40
2022-10-05T04:27:04.794Z,12.90
2022-10-05T04:28:04.820Z,10.30
2022-10-05T04:29:04.819Z,12.30
2022-10-05T04:30:04.789Z,12.20
2022-10-05T04:31:04.821Z,12.60
2022-10-05T04:32:05.749Z,10.60
2022-10-05T04:33:05.648Z,12.40
2022-10-05T04:34:04.829Z,11.80
2022-10-05T04:35:05.721Z,14.20
2022-10-05T04:36:05.626Z,10.30
2022-10-05T04:37:05.778Z,12.60
2022-10-05T04:38:04.727Z,12.80
2022-10-05T04:39:04.728Z,13.30
2022-10-05T04:40:04.707Z,12.00
2022-10-05T04:41:04.706Z,13.30
2022-10-05T04:42:04.778Z,13.20
2022-10-05T04:43:04.707Z,13.30
2022-10-05T04:44:04.797Z,14.80
2022-10-05T04:45:04.687Z,13.40
2022-10-05T04:46:04.696Z,12.40
2022-10-05T04:47:04.729Z,13.40
2022-10-05T04:48:04.653Z,14.10
2022-10-05T04:49:04.644Z,12.60
2022-10-05T04:50:04.639Z,12.10
2022-10-05T04:51:04.625Z,17.40
2022-10-05T04:52:04.660Z,12.80
2022-10-05T04:53:04.635Z,12.50
2022-10-05T04:54:04.635Z,14.10
2022-10-05T04:55:04.667Z,12.20
2022-10-05T04:56:04.605Z,13.90
2022-10-05T04:57:04.603Z,13.90
2022-10-05T04:58:04.604Z,12.80
2022-10-05T04:59:04.624Z,16.00
2022-10-05T05:00:04.583Z,14.00
2022-10-05T05:01:04.625Z,14.70
2022-10-05T05:02:04.625Z,15.50
2022-10-05T05:03:04.544Z,13.10
2022-10-05T05:04:04.614Z,14.60
2022-10-05T05:05:04.533Z,15.70
2022-10-05T05:06:16.858Z,15.20
2022-10-05T05:07:04.531Z,14.40
2022-10-05T05:08:04.532Z,16.50
2022-10-05T05:09:04.534Z,13.80
2022-10-05T05:10:04.508Z,14.40
2022-10-05T05:11:04.493Z,17.00
2022-10-05T05:12:04.490Z,15.40
2022-10-05T05:13:04.481Z,15.30
2022-10-05T05:14:04.568Z,14.40
2022-10-05T05:15:04.520Z,18.30
2022-10-05T05:16:04.572Z,13.50
2022-10-05T05:17:04.516Z,13.70
2022-10-05T05:18:04.481Z,14.70
2022-10-05T05:19:04.451Z,13.40
2022-10-05T05:20:04.430Z,15.10
2022-10-05T05:21:04.427Z,13.30
2022-10-05T05:22:04.415Z,15.10
2022-10-05T05:23:04.410Z,14.70
2022-10-05T05:24:04.479Z,14.10
2022-10-05T05:25:04.400Z,14.50
2022-10-05T05:26:04.390Z,13.80
2022-10-05T05:27:04.396Z,13.20
2022-10-05T05:28:04.413Z,15.60
2022-10-05T05:29:04.389Z,17.60
2022-10-05T05:30:04.379Z,14.30
2022-10-05T05:31:04.411Z,16.50
2022-10-05T05:32:04.349Z,14.40
2022-10-05T05:33:04.348Z,14.50
2022-10-05T05:34:04.360Z,16.70
2022-10-05T05:35:04.332Z,14.70
2022-10-05T05:36:04.330Z,13.90
2022-10-05T05:37:04.598Z,15.90
2022-10-05T05:38:04.307Z,16.20
2022-10-05T05:39:04.337Z,13.20
2022-10-05T05:40:04.318Z,16.40
2022-10-05T05:41:04.288Z,16.90
2022-10-05T05:42:05.180Z,15.40
2022-10-05T05:43:04.502Z,15.20
2022-10-05T05:44:05.217Z,15.10
2022-10-05T05:45:04.288Z,14.20
2022-10-05T05:46:04.277Z,17.00
2022-10-05T05:47:05.668Z,16.40
2022-10-05T05:48:05.106Z,16.80
2022-10-05T05:49:05.117Z,13.10
2022-10-05T05:50:07.492Z,14.90
2022-10-05T05:51:04.248Z,13.80
2022-10-05T05:52:04.247Z,13.70
2022-10-05T05:53:04.307Z,14.10
2022-10-05T05:54:04.275Z,13.80
2022-10-05T05:55:04.222Z,16.50
2022-10-05T05:56:04.196Z,15.80
2022-10-05T05:57:04.244Z,13.60
2022-10-05T05:58:04.306Z,14.50
2022-10-05T05:59:04.326Z,15.70
2022-10-05T06:00:04.185Z,15.40
2022-10-05T06:01:04.483Z,14.80
2022-10-05T06:02:04.642Z,14.70
2022-10-05T06:03:04.648Z,13.40
2022-10-05T06:04:04.654Z,15.80
2022-10-05T06:05:04.151Z,14.90
2022-10-05T06:06:04.154Z,15.10
2022-10-05T06:07:04.773Z,12.00
2022-10-05T06:08:04.783Z,15.30
2022-10-05T06:09:04.318Z,15.00
2022-10-05T06:10:05.004Z,13.90
2022-10-05T06:11:04.703Z,15.30
2022-10-05T06:12:04.206Z,16.90
2022-10-05T06:13:05.023Z,17.30
2022-10-05T06:14:04.925Z,15.20
2022-10-05T06:15:05.094Z,15.30
2022-10-05T06:16:05.014Z,14.00
2022-10-05T06:17:05.263Z,16.70
2022-10-05T06:18:04.877Z,14.60
2022-10-05T06:19:04.959Z,17.30
2022-10-05T06:20:05.616Z,14.40
2022-10-05T06:21:05.014Z,15.40
2022-10-05T06:22:04.922Z,17.40
2022-10-05T06:23:05.512Z,13.70
2022-10-05T06:24:04.982Z,14.00
2022-10-05T06:25:04.331Z,14.30
2022-10-05T06:26:08.266Z,15.20
2022-10-05T06:27:04.951Z,16.30
2022-10-05T06:28:04.900Z,15.60
2022-10-05T06:29:03.984Z,12.90
2022-10-05T06:30:04.111Z,17.10
2022-10-05T06:31:04.120Z,15.50
2022-10-05T06:32:04.171Z,14.90
2022-10-05T06:33:04.130Z,15.60
2022-10-05T06:34:04.352Z,16.00
2022-10-05T06:35:04.358Z,16.50
2022-10-05T06:36:04.365Z,14.20
2022-10-05T06:37:04.370Z,14.50
2022-10-05T06:38:04.387Z,15.10
2022-10-05T06:39:04.421Z,17.70
2022-10-05T06:40:04.460Z,14.90
2022-10-05T06:41:04.411Z,13.90
2022-10-05T06:42:04.026Z,14.50
2022-10-05T06:43:03.881Z,14.20
2022-10-05T06:44:03.908Z,14.40
2022-10-05T06:45:04.768Z,16.40
2022-10-05T06:46:04.739Z,15.00
2022-10-05T06:47:04.848Z,15.60
2022-10-05T06:48:05.503Z,16.00
2022-10-05T06:49:03.858Z,17.30
2022-10-05T06:50:03.868Z,14.80
2022-10-05T06:51:03.873Z,13.80
2022-10-05T06:52:03.878Z,13.80
2022-10-05T06:53:03.821Z,13.50
2022-10-05T06:54:03.916Z,16.30
2022-10-05T06:55:04.098Z,14.70
2022-10-05T06:56:04.111Z,12.70
2022-10-05T06:57:04.116Z,11.60
2022-10-05T06:58:04.118Z,13.00
2022-10-05T06:59:04.154Z,13.50
2022-10-05T07:00:04.338Z,11.40
2022-10-05T07:01:03.813Z,12.70
2022-10-05T07:02:03.787Z,12.20
2022-10-05T07:03:03.736Z,14.30
2022-10-05T07:04:03.960Z,11.70
2022-10-05T07:05:03.765Z,11.20
2022-10-05T07:06:03.770Z,14.70
2022-10-05T07:07:03.785Z,14.00
2022-10-05T07:08:03.994Z,10.70
2022-10-05T07:09:03.944Z,12.00
2022-10-05T07:10:03.801Z,11.70
2022-10-05T07:11:04.011Z,11.70
2022-10-05T07:12:05.669Z,10.90
2022-10-05T07:13:04.225Z,12.80
2022-10-05T07:14:04.225Z,12.60
2022-10-05T07:15:03.976Z,13.00
2022-10-05T07:16:03.876Z,11.20
2022-10-05T07:17:04.045Z,12.40
2022-10-05T07:18:03.655Z,12.90
2022-10-05T07:19:04.485Z,12.40
2022-10-05T07:20:03.706Z,12.50
2022-10-05T07:21:03.683Z,10.90
2022-10-05T07:22:03.895Z,12.70
2022-10-05T07:23:04.443Z,11.50
2022-10-05T07:24:04.503Z,12.20
2022-10-05T07:25:03.696Z,11.10
2022-10-05T07:26:03.714Z,10.80
2022-10-05T07:27:03.924Z,13.40
2022-10-05T07:28:03.767Z,11.20
2022-10-05T07:29:03.552Z,11.00
2022-10-05T07:30:03.552Z,13.00
2022-10-05T07:31:04.150Z,12.60
2022-10-05T07:32:03.943Z,11.90
2022-10-05T07:33:03.746Z,11.10
2022-10-05T07:34:03.752Z,12.70
2022-10-05T07:35:03.556Z,11.20
2022-10-05T07:36:03.973Z,10.40
2022-10-05T07:37:03.781Z,12.30
2022-10-05T07:38:03.504Z,10.20
2022-10-05T07:39:03.802Z,11.90
2022-10-05T07:40:03.591Z,11.80
2022-10-05T07:41:03.642Z,11.10
2022-10-05T07:42:03.648Z,10.40
2022-10-05T07:43:03.461Z,9.50
2022-10-05T07:44:04.416Z,10.30
2022-10-05T07:45:03.463Z,11.40
2022-10-05T07:46:03.731Z,10.90
2022-10-05T07:47:03.463Z,9.60
2022-10-05T07:48:03.431Z,11.10
2022-10-05T07:49:03.491Z,10.10
2022-10-05T07:50:03.571Z,9.70
2022-10-05T07:51:03.431Z,10.00
2022-10-05T07:52:03.398Z,9.40
2022-10-05T07:53:03.391Z,9.50
2022-10-05T07:54:03.511Z,9.70
2022-10-05T07:55:03.731Z,10.50
2022-10-05T07:56:03.382Z,11.00
2022-10-05T07:57:03.366Z,9.60
2022-10-05T07:58:03.510Z,9.20
2022-10-05T07:59:03.405Z,11.70
2022-10-05T08:00:03.349Z,9.70
2022-10-05T08:01:03.349Z,9.70
2022-10-05T08:02:03.375Z,10.80
2022-10-05T08:03:03.338Z,9.30
2022-10-05T08:04:03.317Z,8.90
2022-10-05T08:05:03.312Z,10.20
2022-10-05T08:06:03.332Z,11.20
2022-10-05T08:07:03.299Z,9.80
2022-10-05T08:08:03.288Z,10.70
2022-10-05T08:09:03.278Z,10.10
2022-10-05T08:10:03.274Z,10.00
2022-10-05T08:11:03.286Z,9.60
2022-10-05T08:12:03.258Z,9.80
2022-10-05T08:13:03.257Z,11.50
2022-10-05T08:14:03.248Z,8.80
2022-10-05T08:15:03.278Z,9.70
2022-10-05T08:16:03.342Z,9.10
2022-10-05T08:17:03.227Z,8.80
2022-10-05T08:18:03.227Z,9.00
2022-10-05T08:19:03.207Z,9.60
2022-10-05T08:20:03.257Z,8.00
2022-10-05T08:21:03.205Z,10.00
2022-10-05T08:22:03.219Z,8.70
2022-10-05T08:23:03.197Z,9.70
2022-10-05T08:24:03.196Z,7.70
2022-10-05T08:25:03.287Z,10.60
2022-10-05T08:26:03.179Z,7.50
2022-10-05T08:27:03.308Z,7.30
2022-10-05T08:28:03.185Z,9.00
2022-10-05T08:29:03.145Z,8.20
2022-10-05T08:30:03.150Z,8.60
2022-10-05T08:31:03.254Z,8.30
2022-10-05T08:32:03.135Z,10.10
2022-10-05T08:33:03.347Z,9.50
2022-10-05T08:34:03.106Z,9.90
2022-10-05T08:35:03.140Z,8.00
2022-10-05T08:36:03.977Z,7.70
2022-10-05T08:37:03.984Z,9.70
2022-10-05T08:38:03.076Z,6.30
2022-10-05T08:39:03.085Z,8.00
2022-10-05T08:40:03.265Z,8.60
2022-10-05T08:41:03.065Z,9.50
2022-10-05T08:42:03.306Z,11.70
2022-10-05T08:43:03.214Z,11.10
2022-10-05T08:44:03.045Z,12.10
2022-10-05T08:45:03.035Z,8.70
2022-10-05T08:46:03.151Z,10.30
2022-10-05T08:47:03.046Z,10.40
2022-10-05T08:48:03.036Z,8.00
2022-10-05T08:49:03.045Z,6.50
2022-10-05T08:50:03.094Z,8.30
2022-10-05T08:51:02.997Z,9.70
2022-10-05T08:52:03.275Z,8.70
2022-10-05T08:53:03.304Z,9.00
2022-10-05T08:54:02.973Z,7.00
2022-10-05T08:55:03.323Z,7.00
2022-10-05T08:56:03.018Z,7.70
2022-10-05T08:57:03.102Z,7.80
2022-10-05T08:58:02.953Z,8.10
2022-10-05T08:59:02.943Z,8.50
2022-10-05T09:00:02.938Z,7.10
2022-10-05T09:01:02.986Z,6.10
2022-10-05T09:02:02.953Z,7.40
2022-10-05T09:03:03.024Z,7.40
2022-10-05T09:04:02.903Z,6.30
2022-10-05T09:05:02.902Z,7.50
2022-10-05T09:06:02.901Z,9.00
2022-10-05T09:07:02.922Z,6.60
2022-10-05T09:08:02.884Z,7.80
2022-10-05T09:09:02.882Z,7.30
2022-10-05T09:10:02.932Z,7.60
2022-10-05T09:11:03.852Z,6.50
2022-10-05T09:12:02.880Z,6.80
2022-10-05T09:13:03.030Z,8.00
2022-10-05T09:14:02.835Z,7.20
2022-10-05T09:15:24.305Z,6.40
2022-10-05T09:16:02.880Z,7.90
2022-10-05T09:17:02.831Z,8.00
2022-10-05T09:18:02.817Z,7.70
2022-10-05T09:19:02.801Z,7.10
2022-10-05T09:20:02.792Z,7.60
2022-10-05T09:21:02.790Z,8.30
2022-10-05T09:22:03.084Z,6.60
2022-10-05T09:23:02.771Z,9.00
2022-10-05T09:24:02.770Z,7.10
2022-10-05T09:25:02.770Z,5.90
2022-10-05T09:26:02.759Z,7.00
2022-10-05T09:27:02.769Z,7.40
2022-10-05T09:28:02.773Z,7.40
2022-10-05T09:29:02.740Z,7.30
2022-10-05T09:30:02.737Z,7.20
2022-10-05T09:31:02.750Z,7.30
2022-10-05T09:32:02.743Z,8.50
2022-10-05T09:33:02.778Z,7.20
2022-10-05T09:34:02.710Z,6.50
2022-10-05T09:35:02.708Z,8.10
2022-10-05T09:36:02.767Z,8.10
2022-10-05T09:37:02.701Z,7.10
2022-10-05T09:38:02.682Z,6.60
2022-10-05T09:39:02.689Z,6.90
2022-10-05T09:40:02.667Z,7.40
2022-10-05T09:41:02.658Z,6.60
2022-10-05T09:42:02.659Z,7.40
2022-10-05T09:43:02.649Z,7.20
2022-10-05T09:44:04.099Z,8.10
2022-10-05T09:45:02.618Z,9.40
2022-10-05T09:46:02.699Z,8.70
2022-10-05T09:47:02.628Z,6.70
2022-10-05T09:48:02.602Z,6.90
2022-10-05T09:49:02.598Z,6.80
2022-10-05T09:50:02.579Z,6.50
2022-10-05T09:51:02.579Z,7.00
2022-10-05T09:52:02.895Z,6.80
2022-10-05T09:53:02.568Z,8.30
2022-10-05T09:54:04.019Z,5.70
2022-10-05T09:55:02.581Z,7.50
2022-10-05T09:56:02.562Z,6.40
2022-10-05T09:57:02.582Z,5.90
2022-10-05T09:58:02.547Z,6.90
2022-10-05T09:59:02.550Z,7.50
2022-10-05T10:00:02.579Z,7.20
2022-10-05T10:01:15.411Z,8.30
2022-10-05T10:02:02.607Z,5.60
2022-10-05T10:03:02.621Z,7.30
2022-10-05T10:04:02.507Z,7.20
2022-10-05T10:05:02.505Z,7.30
2022-10-05T10:06:02.497Z,8.20
2022-10-05T10:07:02.517Z,6.20
2022-10-05T10:08:02.478Z,6.20
2022-10-05T10:09:02.476Z,6.50
2022-10-05T10:10:02.469Z,6.40
2022-10-05T10:11:02.485Z,7.20
2022-10-05T10:12:03.196Z,7.90
2022-10-05T10:13:02.464Z,5.80
2022-10-05T10:14:02.448Z,4.90
2022-10-05T10:15:03.105Z,6.00
2022-10-05T10:16:02.510Z,6.50
2022-10-05T10:17:02.446Z,6.20
2022-10-05T10:18:02.413Z,6.60
2022-10-05T10:19:02.417Z,7.20
2022-10-05T10:20:02.405Z,5.20
2022-10-05T10:21:02.405Z,5.30
2022-10-05T10:22:02.396Z,5.40
2022-10-05T10:23:02.866Z,6.20
2022-10-05T10:24:02.396Z,5.20
2022-10-05T10:25:02.395Z,4.70
2022-10-05T10:26:02.388Z,6.50
2022-10-05T10:27:03.094Z,3.90
2022-10-05T10:28:03.877Z,5.00
2022-10-05T10:29:03.106Z,4.70
2022-10-05T10:30:02.366Z,5.20
2022-10-05T10:31:03.426Z,4.60
2022-10-05T10:32:03.845Z,4.80
2022-10-05T10:33:03.353Z,4.80
2022-10-05T10:34:03.264Z,5.00
2022-10-05T10:35:03.166Z,5.30
2022-10-05T10:36:06.194Z,4.80
2022-10-05T10:37:03.875Z,4.90
2022-10-05T10:38:03.134Z,5.40
2022-10-05T10:39:02.777Z,5.20
2022-10-05T10:40:02.375Z,4.90
2022-10-05T10:41:02.379Z,3.80
2022-10-05T10:42:02.304Z,4.30
2022-10-05T10:43:03.726Z,3.60
2022-10-05T10:44:02.395Z,4.40
2022-10-05T10:45:02.454Z,3.90
2022-10-05T10:46:02.636Z,4.90
2022-10-05T10:47:02.653Z,5.30
2022-10-05T10:48:02.243Z,5.20
2022-10-05T10:49:02.223Z,4.50
2022-10-05T10:50:03.674Z,5.70
2022-10-05T10:51:02.235Z,5.30
2022-10-05T10:52:03.659Z,4.30
2022-10-05T10:53:03.663Z,5.80
2022-10-05T10:54:02.304Z,4.00
2022-10-05T10:55:02.464Z,4.50
2022-10-05T10:56:02.492Z,5.70
2022-10-05T10:57:02.483Z,6.70
2022-10-05T10:58:03.635Z,6.10
2022-10-05T10:59:02.555Z,3.70
2022-10-05T11:00:02.174Z,4.50
2022-10-05T11:01:03.593Z,4.60
2022-10-05T11:02:02.734Z,5.50
2022-10-05T11:03:02.263Z,5.20
2022-10-05T11:04:02.131Z,4.20
2022-10-05T11:05:02.121Z,6.10
2022-10-05T11:06:02.127Z,5.40
2022-10-05T11:07:03.601Z,4.90
2022-10-05T11:08:02.965Z,4.30
2022-10-05T11:09:02.083Z,4.20
2022-10-05T11:10:03.585Z,5.50
2022-10-05T11:11:03.585Z,4.50
2022-10-05T11:12:02.182Z,4.10
2022-10-05T11:13:02.072Z,7.00
2022-10-05T11:14:02.092Z,6.30
2022-10-05T11:15:02.116Z,6.30
2022-10-05T11:16:02.311Z,4.70
2022-10-05T11:17:03.494Z,4.30
2022-10-05T11:18:02.872Z,6.10
2022-10-05T11:19:02.458Z,5.60
2022-10-05T11:20:04.490Z,5.20
2022-10-05T11:21:02.452Z,4.70
2022-10-05T11:22:03.009Z,5.50
2022-10-05T11:23:02.902Z,5.20
2022-10-05T11:24:02.005Z,3.90
2022-10-05T11:25:02.504Z,4.30
2022-10-05T11:26:02.882Z,4.40
2022-10-05T11:27:02.779Z,5.30
2022-10-05T11:28:02.114Z,4.10
2022-10-05T11:29:01.952Z,3.00
2022-10-05T11:30:01.990Z,5.60
2022-10-05T11:31:02.150Z,5.10
2022-10-05T11:32:01.940Z,5.30
2022-10-05T11:33:01.930Z,5.20
2022-10-05T11:34:01.930Z,3.40
2022-10-05T11:35:01.991Z,4.50
2022-10-05T11:36:01.964Z,3.40
2022-10-05T11:37:02.141Z,4.20
2022-10-05T11:38:02.151Z,6.20
2022-10-05T11:39:02.020Z,4.20
2022-10-05T11:40:02.233Z,4.80
2022-10-05T11:41:02.234Z,4.20
2022-10-05T11:42:02.169Z,4.60
2022-10-05T11:43:02.402Z,3.90
2022-10-05T11:44:06.167Z,4.20
2022-10-05T11:45:01.871Z,3.60
2022-10-05T11:46:02.506Z,2.80
2022-10-05T11:47:02.625Z,3.90
2022-10-05T11:48:02.631Z,4.60
2022-10-05T11:49:01.819Z,3.80
2022-10-05T11:50:01.811Z,4.20
2022-10-05T11:51:01.805Z,5.00
2022-10-05T11:52:01.791Z,3.80
2022-10-05T11:53:01.840Z,3.40
2022-10-05T11:54:01.780Z,3.50
2022-10-05T11:55:17.158Z,4.00
2022-10-05T11:56:01.793Z,3.60
2022-10-05T11:57:02.197Z,3.50
2022-10-05T11:58:01.780Z,3.90
2022-10-05T11:59:01.731Z,3.50
2022-10-05T12:00:01.740Z,4.20
2022-10-05T12:01:01.889Z,3.30
2022-10-05T12:02:01.743Z,3.60
2022-10-05T12:03:01.828Z,3.00
2022-10-05T12:04:01.788Z,4.00
2022-10-05T12:05:01.722Z,3.90
2022-10-05T12:06:03.157Z,3.40
2022-10-05T12:07:01.680Z,4.10
2022-10-05T12:08:01.700Z,3.70
2022-10-05T12:09:01.670Z,6.10
2022-10-05T12:10:01.763Z,5.40
2022-10-05T12:11:01.669Z,3.10
2022-10-05T12:12:01.670Z,3.90
2022-10-05T12:13:02.102Z,3.50
2022-10-05T12:14:01.669Z,2.90
2022-10-05T12:15:01.998Z,4.00
2022-10-05T12:16:01.682Z,3.40
2022-10-05T12:17:01.621Z,5.40
2022-10-05T12:18:01.609Z,3.10
2022-10-05T12:19:01.616Z,3.10
2022-10-05T12:20:01.619Z,3.90
2022-10-05T12:21:01.589Z,3.60
2022-10-05T12:22:01.591Z,3.50
2022-10-05T12:23:01.828Z,3.60
2022-10-05T12:24:01.618Z,2.70
2022-10-05T12:25:01.562Z,3.50
2022-10-05T12:26:01.578Z,2.30
2022-10-05T12:27:01.559Z,4.90
2022-10-05T12:28:01.613Z,4.00
2022-10-05T12:29:01.568Z,2.60
2022-10-05T12:30:01.539Z,3.40
2022-10-05T12:31:01.517Z,4.30
2022-10-05T12:32:01.519Z,3.00
2022-10-05T12:33:02.331Z,5.60
2022-10-05T12:34:01.528Z,4.50
2022-10-05T12:35:02.214Z,4.60
2022-10-05T12:36:01.529Z,3.60
2022-10-05T12:37:04.389Z,3.70
2022-10-05T12:38:01.486Z,3.30
2022-10-05T12:39:02.052Z,4.40
2022-10-05T12:40:02.323Z,4.20
2022-10-05T12:41:01.457Z,3.40
2022-10-05T12:42:01.455Z,3.90
2022-10-05T12:43:01.448Z,3.20
2022-10-05T12:44:01.569Z,4.20
2022-10-05T12:45:01.579Z,5.50
2022-10-05T12:46:01.722Z,3.20
2022-10-05T12:47:01.399Z,4.30
2022-10-05T12:48:01.410Z,4.70
2022-10-05T12:49:01.418Z,4.60
2022-10-05T12:50:01.431Z,5.90
2022-10-05T12:51:01.397Z,3.80
2022-10-05T12:52:01.426Z,3.70
2022-10-05T12:53:01.376Z,3.50
2022-10-05T12:54:01.378Z,3.60
2022-10-05T12:55:01.356Z,4.70
2022-10-05T12:56:01.368Z,4.00
2022-10-05T12:57:01.438Z,3.60
2022-10-05T12:58:01.387Z,4.90
2022-10-05T12:59:01.372Z,3.30
2022-10-05T13:00:01.426Z,3.00
2022-10-05T13:01:01.576Z,4.50
2022-10-05T13:02:01.814Z,3.90